Time;durP1;ratioP1;P1;durP2;ratioP2;P2;SDS_P1;SDS_P2;PMS_P1;PMS_P2;Temp;Humidity;BMP_temperature;BMP_pressure;BME280_temperature;BME280_humidity;BME280_pressure;Samples;Min_cycle;Max_cycle;Signal;HPM_P1;HPM_P2
2022/12/05 00:00:05;;;;;;;61.40;27.60;;;3.40;99.90;;;;;;5034268;28;20452;-81
2022/12/05 00:02:34;;;;;;;56.10;27.40;;;3.30;99.90;;;;;;5033830;28;20436;-80
2022/12/05 00:05:00;;;;;;;62.13;29.23;;;3.30;99.90;;;;;;5032047;28;20457;-79
2022/12/05 00:07:28;;;;;;;54.87;26.03;;;3.20;99.90;;;;;;5033536;28;20461;-81
2022/12/05 00:09:55;;;;;;;62.87;28.57;;;3.10;99.90;;;;;;5032640;28;20444;-82
2022/12/05 00:12:24;;;;;;;55.63;26.17;;;3.00;99.90;;;;;;5033141;28;20445;-82
2022/12/05 00:14:51;;;;;;;61.00;27.97;;;3.00;99.90;;;;;;5032873;28;20437;-81
2022/12/05 00:17:18;;;;;;;54.07;26.43;;;2.90;99.90;;;;;;5033187;28;20507;-82
2022/12/05 00:19:46;;;;;;;61.47;27.10;;;2.80;99.90;;;;;;5034163;28;20803;-83
2022/12/05 00:22:14;;;;;;;56.03;26.07;;;2.80;99.90;;;;;;5032891;28;20448;-82
2022/12/05 00:24:42;;;;;;;62.97;27.13;;;2.80;99.90;;;;;;5033029;28;20951;-80
2022/12/05 00:27:09;;;;;;;63.60;27.03;;;2.70;99.90;;;;;;5032996;28;20450;-80
2022/12/05 00:29:37;;;;;;;61.73;27.37;;;2.70;99.90;;;;;;5033636;28;20452;-80
2022/12/05 00:32:04;;;;;;;54.87;26.60;;;2.70;99.90;;;;;;5033406;28;20502;-79
2022/12/05 00:34:31;;;;;;;61.07;27.57;;;2.70;99.90;;;;;;5033302;28;20452;-80
2022/12/05 00:36:59;;;;;;;62.17;27.10;;;2.70;99.90;;;;;;5032885;28;20883;-82
2022/12/05 00:39:26;;;;;;;60.83;27.00;;;2.70;99.90;;;;;;5033152;28;20441;-79
2022/12/05 00:41:53;;;;;;;56.23;27.17;;;2.80;99.90;;;;;;5033484;28;20447;-80
2022/12/05 00:44:20;;;;;;;66.77;28.87;;;2.80;99.90;;;;;;5033396;28;20440;-79
2022/12/05 00:46:47;;;;;;;62.77;26.93;;;2.80;99.90;;;;;;5033207;28;20441;-78
2022/12/05 00:49:14;;;;;;;57.87;25.93;;;2.90;99.90;;;;;;5032687;28;20436;-79
2022/12/05 00:51:42;;;;;;;60.77;26.30;;;2.90;99.90;;;;;;5032186;28;20820;-78
2022/12/05 00:54:12;;;;;;;64.03;27.23;;;3.20;99.90;;;;;;5032290;28;20471;-78
2022/12/05 00:56:40;;;;;;;59.43;25.83;;;3.40;99.90;;;;;;5033153;28;20496;-76
2022/12/05 00:59:08;;;;;;;60.07;27.13;;;3.40;99.90;;;;;;5032051;28;20451;-79
2022/12/05 01:01:36;;;;;;;61.53;28.37;;;3.10;99.90;;;;;;5032990;28;20444;-80
2022/12/05 01:04:05;;;;;;;61.50;28.00;;;3.00;99.90;;;;;;5033310;28;20467;-77
2022/12/05 01:06:32;;;;;;;63.67;28.33;;;3.10;99.90;;;;;;5032962;28;20826;-78
2022/12/05 01:09:00;;;;;;;64.63;26.93;;;3.10;99.90;;;;;;5032659;28;20455;-77
2022/12/05 01:11:28;;;;;;;63.37;28.37;;;3.00;99.90;;;;;;5032367;28;20830;-79
2022/12/05 01:13:56;;;;;;;79.28;35.17;;;2.90;99.90;;;;;;5030851;28;20910;-79
2022/12/05 01:16:25;;;;;;;65.17;30.20;;;2.90;99.90;;;;;;5035034;28;20222;-78
2022/12/05 01:18:54;;;;;;;62.93;29.00;;;3.00;99.90;;;;;;5037842;28;20448;-78
2022/12/05 01:21:21;;;;;;;67.13;30.37;;;3.00;99.90;;;;;;5038210;28;20452;-77
2022/12/05 01:23:48;;;;;;;60.53;27.80;;;3.00;99.90;;;;;;5039014;28;20448;-78
2022/12/05 01:26:17;;;;;;;65.50;28.77;;;3.00;99.90;;;;;;5041381;28;20439;-78
2022/12/05 01:28:47;;;;;;;65.03;28.00;;;3.00;99.90;;;;;;5039466;28;20811;-79
2022/12/05 01:31:21;;;;;;;62.97;28.50;;;3.20;99.90;;;;;;5036581;28;20539;-79
2022/12/05 01:33:49;;;;;;;64.30;28.30;;;3.20;99.90;;;;;;5037506;28;20456;-80
2022/12/05 01:36:16;;;;;;;64.87;27.97;;;2.90;99.90;;;;;;5036671;28;20534;-78
2022/12/05 01:38:44;;;;;;;57.30;26.53;;;2.70;99.90;;;;;;5035769;28;20542;-80
2022/12/05 01:41:14;;;;;;;60.97;28.50;;;2.70;99.90;;;;;;5035835;28;20480;-79
2022/12/05 01:43:59;;;;;;;53.87;26.73;;;2.80;99.90;;;;;;5035964;28;20539;-76
2022/12/05 01:46:29;;;;;;;58.43;28.37;;;2.80;99.90;;;;;;5036445;28;20440;-78
2022/12/05 01:49:03;;;;;;;60.23;27.27;;;2.80;99.90;;;;;;5034750;28;20857;-78
2022/12/05 01:51:31;;;;;;;62.67;27.53;;;2.90;99.90;;;;;;5034376;28;20466;-78
2022/12/05 01:53:59;;;;;;;55.67;26.33;;;3.10;99.90;;;;;;5035469;28;20464;-83
2022/12/05 01:56:26;;;;;;;52.77;26.80;;;3.00;99.90;;;;;;5036071;28;20428;-76
2022/12/05 01:58:56;;;;;;;54.60;26.93;;;2.80;99.90;;;;;;5036351;28;20460;-78
2022/12/05 02:01:22;;;;;;;60.03;26.90;;;2.80;99.90;;;;;;5036590;28;20448;-77
2022/12/05 02:03:54;;;;;;;58.73;27.10;;;3.00;99.90;;;;;;5036435;28;20452;-79
2022/12/05 02:06:22;;;;;;;58.07;26.90;;;2.90;99.90;;;;;;5035243;28;20457;-76
2022/12/05 02:08:51;;;;;;;58.17;28.50;;;3.00;99.90;;;;;;5035213;28;20946;-79
2022/12/05 02:11:17;;;;;;;54.37;26.23;;;3.30;99.90;;;;;;5035820;28;20451;-78
2022/12/05 02:14:24;;;;;;;48.07;24.90;;;3.30;99.90;;;;;;5036277;28;20448;-78
2022/12/05 02:17:01;;;;;;;61.20;27.60;;;3.40;99.90;;;;;;5036478;28;20480;-78
2022/12/05 02:19:50;;;;;;;52.47;26.17;;;3.40;99.90;;;;;;5036585;28;20448;-79
2022/12/05 02:22:51;;;;;;;55.27;26.17;;;3.40;99.90;;;;;;5036949;28;20895;-76
2022/12/05 02:25:37;;;;;;;56.13;26.27;;;3.20;99.90;;;;;;5036178;28;20803;-77
2022/12/05 02:28:37;;;;;;;54.53;26.13;;;3.30;99.90;;;;;;5036603;28;20447;-81
2022/12/05 02:31:10;;;;;;;49.47;23.97;;;3.40;99.90;;;;;;5024413;28;20453;-80
2022/12/05 02:33:44;;;;;;;56.43;27.63;;;3.40;99.90;;;;;;5036469;28;20817;-82
2022/12/05 02:36:16;;;;;;;56.70;26.53;;;3.20;99.90;;;;;;5035514;28;20448;-78
2022/12/05 02:38:51;;;;;;;52.77;26.70;;;3.10;99.90;;;;;;5034483;28;20492;-79
2022/12/05 02:41:24;;;;;;;55.27;26.67;;;3.20;99.90;;;;;;5034254;28;20454;-79
2022/12/05 02:43:55;;;;;;;51.73;24.90;;;3.30;99.90;;;;;;5034840;28;20440;-79
2022/12/05 02:46:26;;;;;;;70.90;37.58;;;3.20;99.90;;;;;;5034423;28;20446;-78
2022/12/05 02:48:57;;;;;;;58.10;29.27;;;3.20;99.90;;;;;;5035873;28;20257;-79
2022/12/05 02:51:28;;;;;;;54.37;28.33;;;3.30;99.90;;;;;;5035123;28;20207;-80
2022/12/05 02:53:59;;;;;;;57.67;28.00;;;3.10;99.90;;;;;;5036107;28;20226;-79
2022/12/05 02:56:26;;;;;;;50.63;27.23;;;3.20;99.90;;;;;;5035347;28;20441;-76
2022/12/05 02:58:55;;;;;;;58.37;27.73;;;3.30;99.90;;;;;;5034560;28;20495;-80
2022/12/05 03:01:25;;;;;;;54.00;26.20;;;3.40;99.90;;;;;;5035353;28;20448;-84
2022/12/05 03:03:53;;;;;;;51.53;25.73;;;3.50;99.90;;;;;;5033982;28;20464;-78
2022/12/05 03:06:22;;;;;;;49.17;26.57;;;3.40;99.90;;;;;;5034199;28;20478;-77
2022/12/05 03:08:53;;;;;;;50.77;26.50;;;3.50;99.90;;;;;;5034304;28;20977;-78
2022/12/05 03:11:21;;;;;;;57.87;27.53;;;3.50;99.90;;;;;;5028533;28;20465;-77
2022/12/05 03:13:50;;;;;;;50.93;27.47;;;3.50;99.90;;;;;;5022217;28;20450;-80
2022/12/05 03:16:23;;;;;;;50.97;26.07;;;3.50;99.90;;;;;;5015750;28;20441;-78
2022/12/05 03:18:55;;;;;;;55.20;27.33;;;3.50;99.90;;;;;;5015017;28;20501;-81
2022/12/05 03:21:30;;;;;;;56.23;26.73;;;3.40;99.90;;;;;;5015136;28;20488;-79
2022/12/05 03:24:03;;;;;;;58.43;27.57;;;3.40;99.90;;;;;;5013825;28;20449;-77
2022/12/05 03:26:49;;;;;;;53.50;25.77;;;3.40;99.90;;;;;;5013203;28;20437;-77
2022/12/05 03:29:24;;;;;;;51.47;25.63;;;3.50;99.90;;;;;;5014113;28;20445;-78
2022/12/05 03:32:02;;;;;;;49.73;25.80;;;3.60;99.90;;;;;;5014780;28;20553;-78
2022/12/05 03:34:45;;;;;;;47.90;26.37;;;3.60;99.90;;;;;;5015136;28;20453;-79
2022/12/05 03:37:19;;;;;;;54.93;26.43;;;3.30;99.90;;;;;;5015459;28;20481;-78
2022/12/05 03:39:54;;;;;;;46.63;25.47;;;3.50;99.90;;;;;;5014901;28;20921;-79
2022/12/05 03:42:29;;;;;;;51.20;26.17;;;3.50;99.90;;;;;;5014209;28;20455;-80
2022/12/05 03:45:02;;;;;;;44.40;25.53;;;3.40;99.90;;;;;;5014631;28;20926;-79
2022/12/05 03:47:35;;;;;;;60.70;34.03;;;3.30;99.90;;;;;;5013550;28;20436;-79
2022/12/05 03:50:11;;;;;;;51.27;27.43;;;3.40;99.90;;;;;;5014230;28;20215;-79
2022/12/05 03:52:43;;;;;;;46.47;25.00;;;3.50;99.90;;;;;;5014329;28;20449;-79
2022/12/05 03:55:13;;;;;;;49.97;25.57;;;3.50;99.90;;;;;;5014788;28;20452;-78
2022/12/05 03:57:44;;;;;;;49.30;25.30;;;3.40;99.90;;;;;;5014582;28;20227;-77
2022/12/05 04:00:14;;;;;;;47.40;23.57;;;3.40;99.90;;;;;;5014596;28;20449;-78
2022/12/05 04:02:48;;;;;;;45.53;25.20;;;3.50;99.90;;;;;;5013905;28;20223;-79
2022/12/05 04:05:20;;;;;;;48.70;24.50;;;3.30;99.90;;;;;;5014715;28;20543;-77
2022/12/05 04:07:51;;;;;;;47.57;24.77;;;3.40;99.90;;;;;;5013678;28;20446;-81
2022/12/05 04:10:25;;;;;;;49.47;24.87;;;3.30;99.90;;;;;;5015089;28;20447;-78
2022/12/05 04:12:56;;;;;;;48.27;24.47;;;3.10;99.90;;;;;;5013248;28;20457;-81
2022/12/05 04:15:26;;;;;;;47.77;23.83;;;3.20;99.90;;;;;;5013422;28;20532;-79
2022/12/05 04:17:56;;;;;;;52.90;29.98;;;3.20;99.90;;;;;;5013166;28;20463;-81
2022/12/05 04:23:16;;;;;;;43.40;23.57;;;3.30;99.90;;;;;;5013344;28;20794;-81
2022/12/05 04:25:54;;;;;;;45.93;24.00;;;3.20;99.90;;;;;;5014706;28;20601;-77
2022/12/05 04:28:28;;;;;;;46.27;24.20;;;3.20;99.90;;;;;;5014379;28;20499;-82
2022/12/05 04:31:00;;;;;;;48.13;24.50;;;3.10;99.90;;;;;;5014140;28;20437;-82
2022/12/05 04:33:35;;;;;;;46.10;23.37;;;3.20;99.90;;;;;;5013514;28;20204;-82
2022/12/05 04:36:10;;;;;;;43.90;23.97;;;3.20;99.90;;;;;;5013134;28;20979;-81
2022/12/05 04:38:42;;;;;;;41.27;22.83;;;3.30;99.90;;;;;;5012149;28;21071;-80
2022/12/05 04:41:14;;;;;;;39.77;21.77;;;3.20;99.90;;;;;;5013655;28;20445;-79
2022/12/05 04:43:44;;;;;;;43.47;24.53;;;3.30;99.90;;;;;;5012992;28;20451;-82
2022/12/05 04:46:14;;;;;;;43.10;23.37;;;3.50;99.90;;;;;;5012809;28;20459;-77
2022/12/05 04:48:44;;;;;;;55.13;31.35;;;3.60;99.90;;;;;;5013695;28;20437;-78
2022/12/05 04:51:17;;;;;;;44.83;24.80;;;3.60;99.90;;;;;;5014549;28;20588;-78
2022/12/05 04:53:46;;;;;;;48.90;24.50;;;3.70;99.90;;;;;;5013936;28;20224;-79
2022/12/05 04:56:18;;;;;;;47.23;25.13;;;3.50;99.90;;;;;;5014545;28;20460;-79
2022/12/05 04:58:45;;;;;;;46.43;23.40;;;3.50;99.90;;;;;;5016531;28;20807;-79
2022/12/05 05:01:17;;;;;;;40.77;23.50;;;3.40;99.90;;;;;;5018164;28;20536;-79
2022/12/05 05:03:48;;;;;;;43.97;22.47;;;3.50;99.90;;;;;;5033988;28;20977;-80
2022/12/05 05:06:17;;;;;;;41.60;21.97;;;3.50;99.90;;;;;;5032308;28;20476;-80
2022/12/05 05:08:48;;;;;;;38.70;23.13;;;3.40;99.90;;;;;;5036266;28;20207;-80
2022/12/05 05:11:18;;;;;;;49.97;23.73;;;3.30;99.90;;;;;;5037599;28;20974;-78
2022/12/05 05:13:45;;;;;;;43.97;22.87;;;3.40;99.90;;;;;;5036769;28;20449;-79
2022/12/05 05:16:16;;;;;;;44.83;22.80;;;3.40;99.90;;;;;;5037501;28;20436;-79
2022/12/05 05:18:44;;;;;;;46.57;23.73;;;3.10;99.90;;;;;;5037041;28;20541;-75
2022/12/05 05:21:17;;;;;;;46.77;24.00;;;3.10;99.90;;;;;;5036708;28;20452;-78
2022/12/05 05:23:44;;;;;;;43.93;24.13;;;3.30;99.90;;;;;;5036824;28;20459;-79
2022/12/05 05:26:11;;;;;;;45.80;22.93;;;3.40;99.90;;;;;;5036847;28;20460;-80
2022/12/05 05:28:38;;;;;;;53.43;24.37;;;3.40;99.90;;;;;;5037123;28;20448;-77
2022/12/05 05:31:06;;;;;;;49.43;25.33;;;3.40;99.90;;;;;;5036789;28;20455;-79
2022/12/05 05:33:34;;;;;;;49.57;24.77;;;3.40;99.90;;;;;;5036406;28;20468;-79
2022/12/05 05:36:03;;;;;;;48.97;23.67;;;3.40;99.90;;;;;;5036579;28;20445;-81
2022/12/05 05:38:35;;;;;;;49.77;24.10;;;3.40;99.90;;;;;;5036781;28;20491;-79
2022/12/05 05:41:01;;;;;;;45.67;24.60;;;3.40;99.90;;;;;;5037008;28;20485;-80
2022/12/05 05:43:28;;;;;;;46.70;24.80;;;3.50;99.90;;;;;;5031724;28;20456;-81
2022/12/05 05:45:55;;;;;;;51.63;24.90;;;3.50;99.90;;;;;;5027960;28;20448;-83
2022/12/05 05:48:22;;;;;;;47.03;23.73;;;3.50;99.90;;;;;;5036452;28;20447;-79
2022/12/05 05:50:49;;;;;;;66.43;37.22;;;3.50;99.90;;;;;;5025430;28;20432;-80
2022/12/05 05:53:16;;;;;;;54.77;27.67;;;3.60;99.90;;;;;;5030981;28;20226;-80
2022/12/05 05:55:44;;;;;;;56.37;27.77;;;3.50;99.90;;;;;;5036816;28;20199;-77
2022/12/05 05:58:10;;;;;;;59.37;30.07;;;3.50;99.90;;;;;;5036685;28;20686;-76
2022/12/05 06:00:37;;;;;;;47.20;24.93;;;3.60;99.90;;;;;;5036373;28;20436;-80
2022/12/05 06:03:04;;;;;;;50.50;25.73;;;3.60;99.90;;;;;;5036013;28;20467;-81
2022/12/05 06:05:31;;;;;;;53.93;25.37;;;3.60;99.90;;;;;;5036985;28;20448;-80
2022/12/05 06:07:58;;;;;;;51.57;24.53;;;3.60;99.90;;;;;;5036624;28;20831;-81
2022/12/05 06:10:25;;;;;;;48.43;25.27;;;3.50;99.90;;;;;;5035960;28;20475;-83
2022/12/05 06:12:53;;;;;;;48.43;25.47;;;3.50;99.90;;;;;;5036888;28;20448;-79
2022/12/05 06:15:20;;;;;;;51.93;24.97;;;3.50;99.90;;;;;;5037519;28;20444;-78
2022/12/05 06:17:47;;;;;;;46.80;26.07;;;3.50;99.90;;;;;;5036504;28;20815;-78
2022/12/05 06:20:13;;;;;;;52.87;26.60;;;3.60;99.90;;;;;;5035781;28;20935;-79
2022/12/05 06:22:40;;;;;;;52.47;26.33;;;3.60;99.90;;;;;;5036034;28;20458;-89
2022/12/05 06:25:09;;;;;;;48.27;25.20;;;3.60;99.90;;;;;;5033739;28;20464;-79
2022/12/05 06:27:36;;;;;;;48.87;26.10;;;3.60;99.90;;;;;;5031259;28;20470;-78
2022/12/05 06:30:06;;;;;;;49.93;25.40;;;3.70;99.90;;;;;;5036359;28;20206;-80
2022/12/05 06:32:35;;;;;;;50.20;25.67;;;3.70;99.90;;;;;;5035684;28;20440;-78
2022/12/05 06:35:07;;;;;;;50.40;25.67;;;3.60;99.90;;;;;;5036011;28;20448;-78
2022/12/05 06:37:37;;;;;;;47.20;24.67;;;3.60;99.90;;;;;;5035554;28;20210;-77
2022/12/05 06:40:04;;;;;;;50.17;26.20;;;3.70;99.90;;;;;;5034153;28;20245;-87
2022/12/05 06:42:31;;;;;;;50.70;25.50;;;3.80;99.90;;;;;;5034845;28;20451;-79
2022/12/05 06:45:07;;;;;;;54.90;26.50;;;3.80;99.90;;;;;;5035103;28;20456;-83
2022/12/05 06:47:33;;;;;;;56.60;28.77;;;3.80;99.90;;;;;;5021018;28;20449;-79
2022/12/05 06:50:00;;;;;;;50.47;25.67;;;3.80;99.90;;;;;;5034485;28;20444;-78
2022/12/05 06:52:27;;;;;;;64.28;36.80;;;3.60;99.90;;;;;;5019866;28;20519;-76
2022/12/05 06:54:54;;;;;;;58.70;28.43;;;3.80;99.90;;;;;;5035963;28;20200;-79
2022/12/05 06:57:24;;;;;;;51.47;27.77;;;3.80;99.90;;;;;;5035478;28;20437;-79
2022/12/05 07:01:37;;;;;;;51.67;25.57;;;3.70;99.90;;;;;;5035542;28;21014;-85
2022/12/05 07:02:40;;;;;;;47.30;26.23;;;3.70;99.90;;;;;;5035673;28;20199;-87
2022/12/05 07:05:10;;;;;;;47.07;25.73;;;3.80;99.90;;;;;;5035950;28;20647;-89
2022/12/05 07:07:37;;;;;;;53.90;26.27;;;3.80;99.90;;;;;;5034909;28;20827;-77
2022/12/05 07:10:05;;;;;;;50.20;26.33;;;3.90;99.90;;;;;;5034852;28;20463;-78
2022/12/05 07:12:33;;;;;;;53.30;25.93;;;4.10;99.90;;;;;;5034288;28;20233;-78
2022/12/05 07:15:00;;;;;;;51.63;25.87;;;4.00;99.90;;;;;;5030364;28;20196;-78
2022/12/05 07:17:28;;;;;;;55.33;28.20;;;3.90;99.90;;;;;;5030236;28;20454;-77
2022/12/05 07:19:56;;;;;;;56.77;27.47;;;4.10;99.90;;;;;;5013464;28;20577;-78
2022/12/05 07:22:23;;;;;;;51.50;27.70;;;3.90;99.90;;;;;;5023958;28;20202;-79
2022/12/05 07:24:52;;;;;;;49.27;26.40;;;3.90;99.90;;;;;;5029311;28;20194;-79
2022/12/05 07:27:19;;;;;;;49.47;26.63;;;4.00;99.90;;;;;;5039270;28;20666;-81
2022/12/05 07:29:46;;;;;;;51.90;27.93;;;4.20;99.90;;;;;;5038463;28;20444;-80
2022/12/05 07:32:15;;;;;;;54.57;26.60;;;4.30;99.90;;;;;;5038978;28;20555;-80
2022/12/05 07:34:42;;;;;;;53.40;27.27;;;4.00;99.90;;;;;;5039224;28;20688;-83
2022/12/05 07:37:12;;;;;;;56.83;27.53;;;3.90;99.90;;;;;;5037853;28;20476;-83
2022/12/05 07:39:39;;;;;;;57.23;26.50;;;4.00;99.90;;;;;;5020954;28;20493;-78
2022/12/05 07:42:06;;;;;;;51.60;28.33;;;4.00;99.90;;;;;;5034307;28;20543;-81
2022/12/05 07:44:33;;;;;;;53.43;26.83;;;4.10;99.90;;;;;;5035289;28;20199;-86
2022/12/05 07:47:00;;;;;;;54.60;28.07;;;4.20;99.90;;;;;;5035223;28;20440;-83
2022/12/05 07:49:27;;;;;;;53.53;28.10;;;4.30;99.90;;;;;;5035999;28;20448;-88
2022/12/05 07:51:56;;;;;;;56.87;27.80;;;4.30;99.90;;;;;;5034558;28;20206;-77
2022/12/05 07:54:24;;;;;;;75.65;41.67;;;4.20;99.90;;;;;;5032877;28;20800;-79
2022/12/05 07:56:51;;;;;;;60.87;31.37;;;4.20;99.90;;;;;;5035261;28;20210;-79
2022/12/05 07:59:18;;;;;;;58.97;29.10;;;4.00;99.90;;;;;;5034520;28;20219;-76
2022/12/05 08:01:44;;;;;;;56.27;29.77;;;4.10;99.90;;;;;;5033838;28;20203;-78
2022/12/05 08:04:11;;;;;;;59.37;28.17;;;4.10;99.90;;;;;;5034023;28;20661;-78
2022/12/05 08:06:38;;;;;;;54.87;27.37;;;4.10;99.90;;;;;;5033776;28;20211;-79
2022/12/05 08:09:07;;;;;;;60.47;28.37;;;4.30;99.90;;;;;;5034462;28;20538;-77
2022/12/05 08:11:36;;;;;;;52.33;27.73;;;4.10;99.90;;;;;;5034425;28;20230;-79
2022/12/05 08:14:05;;;;;;;53.20;27.73;;;4.00;99.90;;;;;;5033972;28;20562;-80
2022/12/05 08:16:32;;;;;;;49.03;27.37;;;3.90;99.90;;;;;;5033708;28;20543;-79
2022/12/05 08:19:00;;;;;;;76.95;41.15;;;3.80;99.90;;;;;;5032269;28;20455;-78
2022/12/05 08:21:28;;;;;;;58.47;28.73;;;4.00;99.90;;;;;;5033671;28;20192;-78
2022/12/05 08:23:55;;;;;;;72.23;37.23;;;4.00;99.90;;;;;;5019068;28;20466;-79
2022/12/05 08:26:24;;;;;;;69.37;30.93;;;4.30;99.90;;;;;;5033698;28;20214;-79
2022/12/05 08:28:54;;;;;;;53.80;29.13;;;4.40;99.90;;;;;;5028364;28;20207;-75
2022/12/05 08:31:23;;;;;;;57.83;28.73;;;4.50;99.90;;;;;;5013297;28;20203;-74
2022/12/05 08:33:50;;;;;;;55.77;28.60;;;4.40;99.90;;;;;;5029456;28;20203;-78
2022/12/05 08:36:18;;;;;;;58.47;27.63;;;4.50;99.90;;;;;;5014163;28;20734;-80
2022/12/05 08:38:46;;;;;;;57.37;28.37;;;4.40;99.90;;;;;;5029287;28;20233;-78
2022/12/05 08:41:15;;;;;;;57.93;28.63;;;4.50;99.90;;;;;;5032613;28;20321;-80
2022/12/05 08:43:42;;;;;;;55.93;29.40;;;4.40;99.90;;;;;;5031717;28;20214;-85
2022/12/05 08:46:10;;;;;;;54.40;28.93;;;4.30;99.90;;;;;;5031603;28;20678;-76
2022/12/05 08:48:37;;;;;;;54.20;28.00;;;4.30;99.90;;;;;;5032395;28;20210;-78
2022/12/05 08:51:06;;;;;;;58.00;28.60;;;4.40;99.90;;;;;;5032279;28;20203;-78
2022/12/05 08:53:32;;;;;;;48.67;26.70;;;4.60;99.90;;;;;;5031342;28;20223;-76
2022/12/05 08:56:01;;;;;;;78.47;44.78;;;4.70;99.90;;;;;;5031345;28;20434;-79
2022/12/05 08:58:28;;;;;;;55.00;31.67;;;4.90;99.90;;;;;;5032445;28;20215;-79
2022/12/05 09:01:02;;;;;;;60.63;30.03;;;4.60;99.90;;;;;;5031521;28;20677;-77
2022/12/05 09:03:31;;;;;;;51.00;27.00;;;4.40;99.90;;;;;;5032471;28;20686;-79
2022/12/05 09:06:06;;;;;;;44.47;26.47;;;4.50;99.90;;;;;;5032126;28;20230;-78
2022/12/05 09:08:33;;;;;;;44.53;25.13;;;4.50;99.90;;;;;;5032360;28;20617;-79
2022/12/05 09:11:04;;;;;;;47.03;26.13;;;4.30;99.90;;;;;;5029590;28;20196;-77
2022/12/05 09:13:31;;;;;;;44.23;24.73;;;4.30;99.90;;;;;;5018751;28;20195;-76
2022/12/05 09:15:57;;;;;;;44.10;24.97;;;4.20;99.90;;;;;;5029635;28;20207;-80
2022/12/05 09:18:24;;;;;;;44.73;25.50;;;4.20;99.90;;;;;;5029245;28;20199;-78
2022/12/05 09:20:52;;;;;;;43.77;24.50;;;4.10;99.90;;;;;;5024169;28;20215;-79
2022/12/05 09:23:19;;;;;;;43.07;25.47;;;4.10;99.90;;;;;;5014466;28;20681;-80
2022/12/05 09:25:54;;;;;;;45.43;24.90;;;4.20;99.90;;;;;;5031952;28;20207;-81
2022/12/05 09:28:21;;;;;;;47.20;25.37;;;4.30;99.90;;;;;;5029039;28;20373;-80
2022/12/05 09:30:56;;;;;;;49.20;26.50;;;4.30;99.90;;;;;;5028321;28;20214;-79
2022/12/05 09:33:23;;;;;;;42.40;23.73;;;4.30;99.90;;;;;;5026106;28;20268;-79
2022/12/05 09:35:51;;;;;;;41.67;23.80;;;4.30;99.90;;;;;;5023962;28;20680;-78
2022/12/05 09:38:18;;;;;;;45.70;22.17;;;4.50;99.90;;;;;;5021697;28;20210;-80
2022/12/05 09:40:45;;;;;;;44.20;24.43;;;4.30;99.90;;;;;;5023733;28;20231;-79
2022/12/05 09:43:23;;;;;;;46.43;24.27;;;4.50;99.90;;;;;;5027496;28;20203;-76
2022/12/05 09:45:58;;;;;;;41.30;23.20;;;4.60;99.90;;;;;;5029366;28;20199;-78
2022/12/05 09:48:25;;;;;;;42.53;24.53;;;4.70;99.90;;;;;;5025823;28;20728;-77
2022/12/05 09:50:57;;;;;;;45.30;25.80;;;4.90;99.90;;;;;;5034804;28;20196;-78
2022/12/05 09:53:29;;;;;;;41.87;24.17;;;4.90;99.90;;;;;;5036482;28;20215;-75
2022/12/05 09:56:00;;;;;;;52.30;31.23;;;5.00;99.90;;;;;;5036129;28;20426;-74
2022/12/05 09:58:42;;;;;;;45.90;25.17;;;5.00;99.90;;;;;;5036994;28;20196;-89
2022/12/05 10:01:25;;;;;;;36.93;24.00;;;5.00;99.90;;;;;;5039242;28;20203;-85
2022/12/05 10:04:12;;;;;;;39.83;23.93;;;5.20;99.90;;;;;;5038410;28;20222;-80
2022/12/05 10:06:45;;;;;;;34.37;22.50;;;5.20;99.90;;;;;;5036123;28;20321;-74
2022/12/05 10:09:28;;;;;;;41.53;23.60;;;5.20;99.90;;;;;;5036303;28;20213;-84
2022/12/05 10:12:01;;;;;;;34.07;21.33;;;5.10;99.90;;;;;;5036222;28;20203;-74
2022/12/05 10:14:40;;;;;;;37.20;21.17;;;4.80;99.90;;;;;;5026940;28;20207;-76
2022/12/05 10:17:17;;;;;;;36.10;21.80;;;4.80;99.90;;;;;;5033170;28;20202;-75
2022/12/05 10:19:47;;;;;;;35.33;22.20;;;4.80;99.90;;;;;;5035934;28;20242;-76
2022/12/05 10:22:21;;;;;;;38.40;22.23;;;4.90;99.90;;;;;;5035708;28;20570;-76
2022/12/05 10:24:51;;;;;;;33.67;26.55;;;4.70;99.90;;;;;;5035299;28;20427;-76
2022/12/05 10:27:20;;;;;;;34.20;21.57;;;4.80;99.90;;;;;;5033403;28;20258;-88
2022/12/05 10:29:53;;;;;;;33.43;21.63;;;4.70;99.90;;;;;;5036344;28;20257;-78
2022/12/05 10:32:26;;;;;;;30.00;20.33;;;4.80;99.90;;;;;;5036136;28;20200;-76
2022/12/05 10:34:59;;;;;;;29.57;20.03;;;4.70;99.90;;;;;;5035589;28;20219;-77
2022/12/05 10:37:29;;;;;;;29.10;19.17;;;4.70;99.90;;;;;;5036167;28;20203;-87
2022/12/05 10:39:58;;;;;;;27.87;19.00;;;4.80;99.90;;;;;;5035624;28;20231;-86
2022/12/05 10:42:29;;;;;;;32.17;21.63;;;4.90;99.90;;;;;;5019398;28;20203;-78
2022/12/05 10:44:59;;;;;;;31.10;19.97;;;4.80;99.90;;;;;;5029148;28;20199;-78
2022/12/05 10:47:26;;;;;;;31.03;20.23;;;4.80;99.90;;;;;;5035296;28;20206;-76
2022/12/05 10:49:54;;;;;;;30.67;20.10;;;4.80;99.90;;;;;;5034783;28;20281;-76
2022/12/05 10:52:21;;;;;;;32.10;20.23;;;4.60;99.90;;;;;;5015625;28;20648;-75
2022/12/05 10:54:54;;;;;;;35.50;20.43;;;4.70;99.90;;;;;;5027813;28;20670;-75
2022/12/05 10:57:23;;;;;;;33.53;20.10;;;4.90;99.90;;;;;;5034454;28;20207;-77
2022/12/05 10:59:50;;;;;;;33.67;21.30;;;5.00;99.90;;;;;;5031739;28;20232;-76
2022/12/05 11:02:23;;;;;;;30.63;19.10;;;5.10;99.90;;;;;;5023525;28;20203;-76
2022/12/05 11:04:50;;;;;;;29.13;18.57;;;4.90;99.90;;;;;;5035018;28;20203;-76
2022/12/05 11:07:27;;;;;;;26.13;17.53;;;5.00;99.90;;;;;;5034435;28;20217;-75
2022/12/05 11:09:55;;;;;;;29.52;24.08;;;5.00;99.90;;;;;;5033779;28;20431;-75
2022/12/05 11:12:24;;;;;;;26.70;18.30;;;4.70;99.90;;;;;;5034585;28;20218;-78
2022/12/05 11:14:57;;;;;;;26.47;18.63;;;4.90;99.90;;;;;;5035495;28;20243;-89
2022/12/05 11:17:29;;;;;;;27.57;18.53;;;4.80;99.90;;;;;;5035153;28;20650;-89
2022/12/05 11:19:56;;;;;;;24.43;17.27;;;4.60;99.90;;;;;;5037110;28;20227;-77
2022/12/05 11:22:31;;;;;;;26.80;19.03;;;4.60;99.90;;;;;;5035051;28;20203;-82
2022/12/05 11:25:00;;;;;;;24.90;18.45;;;4.40;99.90;;;;;;5035034;28;20351;-78
2022/12/05 11:27:32;;;;;;;24.03;17.20;;;4.50;99.90;;;;;;5034531;28;20192;-79
2022/12/05 11:30:02;;;;;;;24.57;17.53;;;4.60;99.90;;;;;;5034261;28;20195;-82
2022/12/05 11:32:31;;;;;;;24.30;16.60;;;4.70;99.90;;;;;;5034296;28;20601;-81
2022/12/05 11:35:07;;;;;;;23.53;17.80;;;4.80;99.90;;;;;;5032873;28;20199;-79
2022/12/05 11:37:40;;;;;;;21.17;16.20;;;4.70;99.90;;;;;;5032591;28;20206;-80
2022/12/05 11:40:16;;;;;;;26.33;17.00;;;4.90;99.90;;;;;;5033824;28;20222;-81
2022/12/05 11:42:58;;;;;;;23.70;17.30;;;5.10;99.90;;;;;;5033248;28;20202;-80
2022/12/05 11:45:37;;;;;;;26.30;16.33;;;5.20;99.90;;;;;;5033392;28;20211;-81
2022/12/05 11:48:17;;;;;;;28.20;18.93;;;5.20;99.90;;;;;;5020707;28;20204;-80
2022/12/05 11:51:01;;;;;;;29.13;19.90;;;5.10;99.90;;;;;;5032556;28;20677;-83
2022/12/05 11:53:45;;;;;;;25.60;17.43;;;5.10;99.90;;;;;;5030099;28;20219;-80
2022/12/05 11:56:27;;;;;;;24.73;17.53;;;5.10;99.90;;;;;;5027166;28;20199;-80
2022/12/05 11:59:09;;;;;;;28.17;19.00;;;5.10;99.90;;;;;;5014918;28;20215;-77
2022/12/05 12:01:45;;;;;;;28.00;18.70;;;5.30;99.90;;;;;;5031797;28;20227;-77
2022/12/05 12:04:31;;;;;;;25.40;18.53;;;5.30;99.90;;;;;;5033492;28;20202;-79
2022/12/05 12:07:15;;;;;;;25.47;18.03;;;5.30;99.90;;;;;;5031452;28;20234;-79
2022/12/05 12:09:47;;;;;;;28.37;19.80;;;5.40;99.90;;;;;;5032937;28;20199;-77
2022/12/05 12:12:24;;;;;;;26.13;19.47;;;5.30;99.90;;;;;;5032481;28;20910;-79
2022/12/05 12:15:01;;;;;;;29.00;19.23;;;5.20;99.90;;;;;;5032174;28;20207;-79
2022/12/05 12:17:34;;;;;;;30.97;20.53;;;5.10;99.90;;;;;;5032033;28;20206;-78
2022/12/05 12:20:23;;;;;;;32.73;20.90;;;4.90;99.90;;;;;;5032306;28;20235;-79
2022/12/05 12:23:05;;;;;;;32.93;19.70;;;4.90;99.90;;;;;;5028860;28;20199;-79
2022/12/05 12:25:43;;;;;;;30.53;19.77;;;5.00;99.90;;;;;;5032143;28;20229;-79
2022/12/05 12:28:25;;;;;;;28.83;20.50;;;5.10;99.90;;;;;;5037375;28;20209;-81
2022/12/05 12:31:15;;;;;;;28.53;19.97;;;5.10;99.90;;;;;;5037743;28;20211;-78
2022/12/05 12:33:46;;;;;;;31.17;20.27;;;5.00;99.90;;;;;;5027172;28;20208;-77
2022/12/05 12:36:18;;;;;;;32.63;20.10;;;5.00;99.90;;;;;;5018344;28;20594;-78
2022/12/05 12:39:05;;;;;;;29.63;19.60;;;5.00;99.90;;;;;;5023347;28;20210;-79
2022/12/05 12:41:50;;;;;;;37.70;21.03;;;5.10;99.90;;;;;;5031427;28;20247;-80
2022/12/05 12:44:50;;;;;;;31.60;20.53;;;5.20;99.90;;;;;;5031397;28;20704;-80
2022/12/05 12:47:26;;;;;;;33.90;21.50;;;5.20;99.90;;;;;;5032682;28;20199;-81
2022/12/05 12:50:02;;;;;;;35.53;21.93;;;5.00;99.90;;;;;;5023677;28;20677;-82
2022/12/05 12:52:45;;;;;;;35.13;22.20;;;5.10;99.90;;;;;;5014089;28;20227;-82
2022/12/05 12:55:21;;;;;;;32.30;21.27;;;5.10;99.90;;;;;;5032929;28;20569;-81
2022/12/05 12:58:01;;;;;;;33.87;22.37;;;5.10;99.90;;;;;;5032875;28;20569;-81